sensor_id;sensor_type;location;lat;lon;timestamp;P1;durP1;ratioP1;P2;durP2;ratioP2
9819;SDS011;4949;48.482;9.206;2023-03-14T00:01:43;0.90;;;0.90;;
9819;SDS011;4949;48.482;9.206;2023-03-14T00:06:45;1.27;;;1.17;;
9819;SDS011;4949;48.482;9.206;2023-03-14T00:11:46;1.20;;;1.10;;
9819;SDS011;4949;48.482;9.206;2023-03-14T00:16:50;1.10;;;1.10;;
9819;SDS011;4949;48.482;9.206;2023-03-14T00:21:53;1.10;;;0.97;;
9819;SDS011;4949;48.482;9.206;2023-03-14T00:26:54;1.10;;;1.00;;
9819;SDS011;4949;48.482;9.206;2023-03-14T00:31:54;1.20;;;1.10;;
9819;SDS011;4949;48.482;9.206;2023-03-14T00:36:55;1.20;;;1.10;;
9819;SDS011;4949;48.482;9.206;2023-03-14T00:41:56;0.93;;;0.93;;
9819;SDS011;4949;48.482;9.206;2023-03-14T00:46:57;1.33;;;1.10;;
9819;SDS011;4949;48.482;9.206;2023-03-14T00:51:58;1.33;;;1.00;;
9819;SDS011;4949;48.482;9.206;2023-03-14T00:56:58;1.20;;;1.00;;
9819;SDS011;4949;48.482;9.206;2023-03-14T01:01:59;1.00;;;1.00;;
9819;SDS011;4949;48.482;9.206;2023-03-14T01:07:00;1.20;;;1.00;;
9819;SDS011;4949;48.482;9.206;2023-03-14T01:12:00;1.00;;;0.90;;
9819;SDS011;4949;48.482;9.206;2023-03-14T01:17:01;1.00;;;1.00;;
9819;SDS011;4949;48.482;9.206;2023-03-14T01:22:05;0.90;;;0.90;;
9819;SDS011;4949;48.482;9.206;2023-03-14T01:27:08;1.00;;;0.90;;
9819;SDS011;4949;48.482;9.206;2023-03-14T01:32:09;2.63;;;1.10;;
9819;SDS011;4949;48.482;9.206;2023-03-14T01:37:09;1.23;;;1.03;;
9819;SDS011;4949;48.482;9.206;2023-03-14T01:42:13;1.30;;;1.20;;
9819;SDS011;4949;48.482;9.206;2023-03-14T01:47:15;1.03;;;1.03;;
9819;SDS011;4949;48.482;9.206;2023-03-14T01:52:23;0.90;;;0.90;;
9819;SDS011;4949;48.482;9.206;2023-03-14T01:57:41;1.10;;;1.00;;
9819;SDS011;4949;48.482;9.206;2023-03-14T02:02:51;1.00;;;1.00;;
9819;SDS011;4949;48.482;9.206;2023-03-14T02:07:59;1.00;;;1.00;;
9819;SDS011;4949;48.482;9.206;2023-03-14T02:13:05;2.40;;;1.50;;
9819;SDS011;4949;48.482;9.206;2023-03-14T02:18:09;1.93;;;1.03;;
9819;SDS011;4949;48.482;9.206;2023-03-14T02:23:16;1.30;;;1.20;;
9819;SDS011;4949;48.482;9.206;2023-03-14T02:28:50;1.17;;;1.10;;
9819;SDS011;4949;48.482;9.206;2023-03-14T02:34:01;1.10;;;1.10;;
9819;SDS011;4949;48.482;9.206;2023-03-14T02:39:14;0.90;;;0.90;;
9819;SDS011;4949;48.482;9.206;2023-03-14T02:44:25;1.00;;;1.00;;
9819;SDS011;4949;48.482;9.206;2023-03-14T02:49:31;1.57;;;1.00;;
9819;SDS011;4949;48.482;9.206;2023-03-14T02:54:33;1.10;;;1.00;;
9819;SDS011;4949;48.482;9.206;2023-03-14T02:59:36;1.00;;;1.00;;
9819;SDS011;4949;48.482;9.206;2023-03-14T03:04:37;2.00;;;1.20;;
9819;SDS011;4949;48.482;9.206;2023-03-14T03:09:40;1.50;;;1.40;;
9819;SDS011;4949;48.482;9.206;2023-03-14T03:14:44;1.80;;;1.30;;
9819;SDS011;4949;48.482;9.206;2023-03-14T03:19:47;1.10;;;1.10;;
9819;SDS011;4949;48.482;9.206;2023-03-14T03:24:51;3.20;;;1.70;;
9819;SDS011;4949;48.482;9.206;2023-03-14T03:29:54;1.83;;;1.20;;
9819;SDS011;4949;48.482;9.206;2023-03-14T03:34:54;1.30;;;1.20;;
9819;SDS011;4949;48.482;9.206;2023-03-14T03:39:58;1.10;;;1.00;;
9819;SDS011;4949;48.482;9.206;2023-03-14T03:44:59;1.00;;;1.00;;
9819;SDS011;4949;48.482;9.206;2023-03-14T03:50:00;1.30;;;1.20;;
9819;SDS011;4949;48.482;9.206;2023-03-14T03:55:04;3.23;;;1.50;;
9819;SDS011;4949;48.482;9.206;2023-03-14T04:00:05;4.53;;;1.60;;
9819;SDS011;4949;48.482;9.206;2023-03-14T04:05:09;1.40;;;1.30;;
9819;SDS011;4949;48.482;9.206;2023-03-14T04:10:10;2.40;;;1.50;;
9819;SDS011;4949;48.482;9.206;2023-03-14T04:15:10;2.73;;;1.40;;
9819;SDS011;4949;48.482;9.206;2023-03-14T04:20:11;1.30;;;1.20;;
9819;SDS011;4949;48.482;9.206;2023-03-14T04:25:15;1.50;;;1.40;;
9819;SDS011;4949;48.482;9.206;2023-03-14T04:30:17;1.80;;;1.70;;
9819;SDS011;4949;48.482;9.206;2023-03-14T04:35:18;1.80;;;1.40;;
9819;SDS011;4949;48.482;9.206;2023-03-14T04:40:18;2.10;;;1.43;;
9819;SDS011;4949;48.482;9.206;2023-03-14T04:45:24;1.43;;;1.20;;
9819;SDS011;4949;48.482;9.206;2023-03-14T04:50:27;4.30;;;1.40;;
9819;SDS011;4949;48.482;9.206;2023-03-14T04:55:30;1.77;;;1.40;;
9819;SDS011;4949;48.482;9.206;2023-03-14T05:00:34;2.30;;;1.23;;
9819;SDS011;4949;48.482;9.206;2023-03-14T05:05:35;1.33;;;1.20;;
9819;SDS011;4949;48.482;9.206;2023-03-14T05:10:36;2.07;;;1.60;;
9819;SDS011;4949;48.482;9.206;2023-03-14T05:15:37;1.77;;;1.40;;
9819;SDS011;4949;48.482;9.206;2023-03-14T05:20:37;4.20;;;1.43;;
9819;SDS011;4949;48.482;9.206;2023-03-14T05:25:38;2.30;;;1.40;;
9819;SDS011;4949;48.482;9.206;2023-03-14T05:30:39;2.60;;;1.53;;
9819;SDS011;4949;48.482;9.206;2023-03-14T05:35:41;3.83;;;1.60;;
9819;SDS011;4949;48.482;9.206;2023-03-14T05:40:42;3.80;;;1.17;;
9819;SDS011;4949;48.482;9.206;2023-03-14T05:45:45;3.37;;;1.57;;
9819;SDS011;4949;48.482;9.206;2023-03-14T05:50:46;1.60;;;1.20;;
9819;SDS011;4949;48.482;9.206;2023-03-14T05:55:54;1.50;;;1.10;;
9819;SDS011;4949;48.482;9.206;2023-03-14T06:00:56;1.20;;;1.10;;
9819;SDS011;4949;48.482;9.206;2023-03-14T06:05:57;2.90;;;1.57;;
9819;SDS011;4949;48.482;9.206;2023-03-14T06:10:58;3.30;;;1.30;;
9819;SDS011;4949;48.482;9.206;2023-03-14T06:16:01;2.00;;;1.30;;
9819;SDS011;4949;48.482;9.206;2023-03-14T06:21:02;3.43;;;1.10;;
9819;SDS011;4949;48.482;9.206;2023-03-14T06:26:03;1.20;;;1.10;;
9819;SDS011;4949;48.482;9.206;2023-03-14T06:31:06;2.00;;;1.50;;
9819;SDS011;4949;48.482;9.206;2023-03-14T06:36:09;2.00;;;1.43;;
9819;SDS011;4949;48.482;9.206;2023-03-14T06:41:12;1.77;;;1.67;;
9819;SDS011;4949;48.482;9.206;2023-03-14T06:46:15;1.33;;;1.23;;
9819;SDS011;4949;48.482;9.206;2023-03-14T06:51:16;1.00;;;1.00;;
9819;SDS011;4949;48.482;9.206;2023-03-14T06:56:20;1.47;;;1.30;;
9819;SDS011;4949;48.482;9.206;2023-03-14T07:01:24;1.40;;;1.30;;
9819;SDS011;4949;48.482;9.206;2023-03-14T07:06:27;1.10;;;1.00;;
9819;SDS011;4949;48.482;9.206;2023-03-14T07:11:29;2.27;;;1.43;;
9819;SDS011;4949;48.482;9.206;2023-03-14T07:16:32;2.37;;;1.30;;
9819;SDS011;4949;48.482;9.206;2023-03-14T07:21:35;1.47;;;1.37;;
9819;SDS011;4949;48.482;9.206;2023-03-14T07:26:36;0.93;;;0.93;;
9819;SDS011;4949;48.482;9.206;2023-03-14T07:31:39;1.20;;;1.10;;
9819;SDS011;4949;48.482;9.206;2023-03-14T07:36:43;2.60;;;1.20;;
9819;SDS011;4949;48.482;9.206;2023-03-14T07:41:43;1.63;;;1.10;;
9819;SDS011;4949;48.482;9.206;2023-03-14T07:46:44;1.23;;;1.13;;
9819;SDS011;4949;48.482;9.206;2023-03-14T07:51:48;1.83;;;1.10;;
9819;SDS011;4949;48.482;9.206;2023-03-14T07:56:53;1.33;;;1.23;;
9819;SDS011;4949;48.482;9.206;2023-03-14T08:01:54;1.30;;;1.13;;
9819;SDS011;4949;48.482;9.206;2023-03-14T08:06:55;1.10;;;1.00;;
9819;SDS011;4949;48.482;9.206;2023-03-14T08:11:56;1.37;;;1.27;;
9819;SDS011;4949;48.482;9.206;2023-03-14T08:16:57;3.67;;;1.20;;
9819;SDS011;4949;48.482;9.206;2023-03-14T08:21:58;1.20;;;1.10;;
9819;SDS011;4949;48.482;9.206;2023-03-14T08:27:01;3.03;;;1.50;;
9819;SDS011;4949;48.482;9.206;2023-03-14T08:32:02;1.53;;;1.30;;
9819;SDS011;4949;48.482;9.206;2023-03-14T08:37:03;2.40;;;1.50;;
9819;SDS011;4949;48.482;9.206;2023-03-14T08:42:03;1.70;;;1.03;;
9819;SDS011;4949;48.482;9.206;2023-03-14T08:47:06;1.10;;;1.00;;
9819;SDS011;4949;48.482;9.206;2023-03-14T08:52:09;1.27;;;1.10;;
9819;SDS011;4949;48.482;9.206;2023-03-14T08:57:10;2.60;;;1.13;;
9819;SDS011;4949;48.482;9.206;2023-03-14T09:02:11;2.80;;;1.10;;
9819;SDS011;4949;48.482;9.206;2023-03-14T09:07:12;2.37;;;1.40;;
9819;SDS011;4949;48.482;9.206;2023-03-14T09:12:16;1.17;;;1.07;;
9819;SDS011;4949;48.482;9.206;2023-03-14T09:17:17;0.90;;;0.90;;
9819;SDS011;4949;48.482;9.206;2023-03-14T09:22:18;1.57;;;1.20;;
9819;SDS011;4949;48.482;9.206;2023-03-14T09:27:18;0.97;;;0.97;;
9819;SDS011;4949;48.482;9.206;2023-03-14T09:32:21;1.10;;;1.00;;
9819;SDS011;4949;48.482;9.206;2023-03-14T09:37:25;3.07;;;1.10;;
9819;SDS011;4949;48.482;9.206;2023-03-14T09:42:29;1.40;;;1.10;;
9819;SDS011;4949;48.482;9.206;2023-03-14T09:47:29;1.40;;;1.00;;
9819;SDS011;4949;48.482;9.206;2023-03-14T09:52:31;1.20;;;1.10;;
9819;SDS011;4949;48.482;9.206;2023-03-14T09:57:39;1.10;;;1.00;;
9819;SDS011;4949;48.482;9.206;2023-03-14T10:08:24;1.10;;;0.90;;
9819;SDS011;4949;48.482;9.206;2023-03-14T10:13:26;0.90;;;0.90;;
9819;SDS011;4949;48.482;9.206;2023-03-14T10:18:30;1.17;;;1.07;;
9819;SDS011;4949;48.482;9.206;2023-03-14T10:23:34;1.30;;;1.17;;
9819;SDS011;4949;48.482;9.206;2023-03-14T10:28:40;1.10;;;1.00;;
9819;SDS011;4949;48.482;9.206;2023-03-14T10:34:02;1.00;;;1.00;;
9819;SDS011;4949;48.482;9.206;2023-03-14T10:44:21;2.30;;;0.93;;
9819;SDS011;4949;48.482;9.206;2023-03-14T10:49:26;1.00;;;1.00;;
9819;SDS011;4949;48.482;9.206;2023-03-14T10:54:33;1.20;;;1.10;;
9819;SDS011;4949;48.482;9.206;2023-03-14T10:59:37;0.90;;;0.90;;
9819;SDS011;4949;48.482;9.206;2023-03-14T11:10:48;1.13;;;1.03;;
9819;SDS011;4949;48.482;9.206;2023-03-14T11:26:37;1.10;;;1.10;;
9819;SDS011;4949;48.482;9.206;2023-03-14T11:32:02;0.93;;;0.93;;
9819;SDS011;4949;48.482;9.206;2023-03-14T11:37:21;1.00;;;1.00;;
9819;SDS011;4949;48.482;9.206;2023-03-14T11:42:29;0.90;;;0.90;;
9819;SDS011;4949;48.482;9.206;2023-03-14T11:47:34;1.00;;;1.00;;
9819;SDS011;4949;48.482;9.206;2023-03-14T11:53:01;1.00;;;1.00;;
9819;SDS011;4949;48.482;9.206;2023-03-14T12:13:57;1.10;;;1.00;;
9819;SDS011;4949;48.482;9.206;2023-03-14T12:19:14;0.90;;;0.90;;
9819;SDS011;4949;48.482;9.206;2023-03-14T12:24:20;1.10;;;1.00;;
9819;SDS011;4949;48.482;9.206;2023-03-14T12:29:29;1.30;;;1.20;;
9819;SDS011;4949;48.482;9.206;2023-03-14T12:34:31;1.00;;;1.00;;
9819;SDS011;4949;48.482;9.206;2023-03-14T12:45:36;1.17;;;1.07;;
9819;SDS011;4949;48.482;9.206;2023-03-14T12:50:40;1.40;;;1.30;;
9819;SDS011;4949;48.482;9.206;2023-03-14T12:55:45;0.90;;;0.90;;
9819;SDS011;4949;48.482;9.206;2023-03-14T13:01:03;0.97;;;0.97;;
9819;SDS011;4949;48.482;9.206;2023-03-14T13:06:08;1.20;;;1.10;;
9819;SDS011;4949;48.482;9.206;2023-03-14T13:11:12;1.93;;;1.33;;
9819;SDS011;4949;48.482;9.206;2023-03-14T13:16:22;1.03;;;0.97;;
9819;SDS011;4949;48.482;9.206;2023-03-14T13:21:26;3.30;;;1.63;;
9819;SDS011;4949;48.482;9.206;2023-03-14T13:26:41;4.23;;;1.33;;
9819;SDS011;4949;48.482;9.206;2023-03-14T13:31:46;1.33;;;1.20;;
9819;SDS011;4949;48.482;9.206;2023-03-14T13:36:51;1.70;;;1.60;;
9819;SDS011;4949;48.482;9.206;2023-03-14T13:41:53;1.87;;;1.30;;
9819;SDS011;4949;48.482;9.206;2023-03-14T13:47:02;1.60;;;1.50;;
9819;SDS011;4949;48.482;9.206;2023-03-14T13:52:20;2.20;;;1.23;;
9819;SDS011;4949;48.482;9.206;2023-03-14T13:57:43;1.80;;;1.60;;
9819;SDS011;4949;48.482;9.206;2023-03-14T14:02:45;1.97;;;1.37;;
9819;SDS011;4949;48.482;9.206;2023-03-14T14:07:48;3.63;;;1.53;;
9819;SDS011;4949;48.482;9.206;2023-03-14T14:12:52;2.70;;;1.50;;
9819;SDS011;4949;48.482;9.206;2023-03-14T14:18:01;2.90;;;1.50;;
9819;SDS011;4949;48.482;9.206;2023-03-14T14:23:11;1.50;;;1.40;;
9819;SDS011;4949;48.482;9.206;2023-03-14T14:28:15;1.60;;;1.50;;
9819;SDS011;4949;48.482;9.206;2023-03-14T14:33:28;2.33;;;1.70;;
9819;SDS011;4949;48.482;9.206;2023-03-14T14:38:28;4.73;;;1.60;;
9819;SDS011;4949;48.482;9.206;2023-03-14T14:43:33;1.93;;;1.30;;
9819;SDS011;4949;48.482;9.206;2023-03-14T14:48:39;4.10;;;1.53;;
9819;SDS011;4949;48.482;9.206;2023-03-14T14:53:43;1.90;;;1.70;;
9819;SDS011;4949;48.482;9.206;2023-03-14T14:58:47;2.40;;;1.30;;
9819;SDS011;4949;48.482;9.206;2023-03-14T15:03:52;3.80;;;2.20;;
9819;SDS011;4949;48.482;9.206;2023-03-14T15:08:53;2.60;;;1.40;;
9819;SDS011;4949;48.482;9.206;2023-03-14T15:13:55;1.50;;;1.30;;
9819;SDS011;4949;48.482;9.206;2023-03-14T15:18:56;2.10;;;1.50;;
9819;SDS011;4949;48.482;9.206;2023-03-14T15:23:59;4.70;;;1.50;;
9819;SDS011;4949;48.482;9.206;2023-03-14T15:29:00;4.63;;;1.80;;
9819;SDS011;4949;48.482;9.206;2023-03-14T15:34:01;1.30;;;1.20;;
9819;SDS011;4949;48.482;9.206;2023-03-14T15:39:05;1.50;;;1.40;;
9819;SDS011;4949;48.482;9.206;2023-03-14T15:44:07;1.50;;;1.40;;
9819;SDS011;4949;48.482;9.206;2023-03-14T15:49:10;1.83;;;1.40;;
9819;SDS011;4949;48.482;9.206;2023-03-14T15:54:12;3.10;;;1.70;;
9819;SDS011;4949;48.482;9.206;2023-03-14T15:59:13;2.70;;;1.53;;
9819;SDS011;4949;48.482;9.206;2023-03-14T16:04:18;2.17;;;1.30;;
9819;SDS011;4949;48.482;9.206;2023-03-14T16:09:19;2.43;;;1.70;;
9819;SDS011;4949;48.482;9.206;2023-03-14T16:14:21;2.40;;;1.50;;
9819;SDS011;4949;48.482;9.206;2023-03-14T16:19:23;2.40;;;1.80;;
9819;SDS011;4949;48.482;9.206;2023-03-14T16:24:26;1.70;;;1.53;;
9819;SDS011;4949;48.482;9.206;2023-03-14T16:29:28;5.13;;;1.63;;
9819;SDS011;4949;48.482;9.206;2023-03-14T16:34:30;2.07;;;1.50;;
9819;SDS011;4949;48.482;9.206;2023-03-14T16:39:30;1.60;;;1.50;;
9819;SDS011;4949;48.482;9.206;2023-03-14T16:44:31;2.10;;;1.63;;
9819;SDS011;4949;48.482;9.206;2023-03-14T16:49:32;2.00;;;1.80;;
9819;SDS011;4949;48.482;9.206;2023-03-14T16:54:33;2.13;;;1.70;;
9819;SDS011;4949;48.482;9.206;2023-03-14T16:59:34;2.63;;;1.73;;
9819;SDS011;4949;48.482;9.206;2023-03-14T17:04:35;3.40;;;1.43;;
9819;SDS011;4949;48.482;9.206;2023-03-14T17:09:39;1.83;;;1.50;;
9819;SDS011;4949;48.482;9.206;2023-03-14T17:14:40;3.23;;;2.20;;
9819;SDS011;4949;48.482;9.206;2023-03-14T17:19:40;5.70;;;2.63;;
9819;SDS011;4949;48.482;9.206;2023-03-14T17:24:41;5.70;;;2.40;;
9819;SDS011;4949;48.482;9.206;2023-03-14T17:29:42;4.50;;;1.73;;
9819;SDS011;4949;48.482;9.206;2023-03-14T17:34:43;1.93;;;1.73;;
9819;SDS011;4949;48.482;9.206;2023-03-14T17:39:47;3.93;;;2.10;;
9819;SDS011;4949;48.482;9.206;2023-03-14T17:44:47;4.40;;;1.80;;
9819;SDS011;4949;48.482;9.206;2023-03-14T17:49:49;4.03;;;2.00;;
9819;SDS011;4949;48.482;9.206;2023-03-14T17:54:50;3.67;;;1.93;;
9819;SDS011;4949;48.482;9.206;2023-03-14T17:59:51;2.73;;;1.97;;
9819;SDS011;4949;48.482;9.206;2023-03-14T18:04:55;3.70;;;2.00;;
9819;SDS011;4949;48.482;9.206;2023-03-14T18:09:55;5.63;;;2.23;;
9819;SDS011;4949;48.482;9.206;2023-03-14T18:14:56;2.77;;;2.57;;
9819;SDS011;4949;48.482;9.206;2023-03-14T18:19:57;2.70;;;1.87;;
9819;SDS011;4949;48.482;9.206;2023-03-14T18:25:00;2.40;;;1.60;;
9819;SDS011;4949;48.482;9.206;2023-03-14T18:30:01;3.97;;;1.90;;
9819;SDS011;4949;48.482;9.206;2023-03-14T18:35:03;1.90;;;1.70;;
9819;SDS011;4949;48.482;9.206;2023-03-14T18:40:05;3.53;;;2.47;;
9819;SDS011;4949;48.482;9.206;2023-03-14T18:45:12;2.93;;;2.00;;
9819;SDS011;4949;48.482;9.206;2023-03-14T18:50:16;2.80;;;2.00;;
9819;SDS011;4949;48.482;9.206;2023-03-14T18:55:16;3.10;;;2.00;;
9819;SDS011;4949;48.482;9.206;2023-03-14T19:00:18;2.60;;;2.40;;
9819;SDS011;4949;48.482;9.206;2023-03-14T19:05:22;3.00;;;2.20;;
9819;SDS011;4949;48.482;9.206;2023-03-14T19:10:25;2.27;;;1.90;;
9819;SDS011;4949;48.482;9.206;2023-03-14T19:15:26;2.20;;;1.60;;
9819;SDS011;4949;48.482;9.206;2023-03-14T19:20:27;3.83;;;1.90;;
9819;SDS011;4949;48.482;9.206;2023-03-14T19:25:28;2.20;;;1.90;;
9819;SDS011;4949;48.482;9.206;2023-03-14T19:30:29;2.80;;;1.87;;
9819;SDS011;4949;48.482;9.206;2023-03-14T19:35:30;3.10;;;2.20;;
9819;SDS011;4949;48.482;9.206;2023-03-14T19:40:31;2.90;;;2.07;;
9819;SDS011;4949;48.482;9.206;2023-03-14T19:45:32;4.03;;;2.10;;
9819;SDS011;4949;48.482;9.206;2023-03-14T19:50:33;2.13;;;1.80;;
9819;SDS011;4949;48.482;9.206;2023-03-14T19:55:34;2.03;;;1.87;;
9819;SDS011;4949;48.482;9.206;2023-03-14T20:00:36;2.40;;;2.20;;
9819;SDS011;4949;48.482;9.206;2023-03-14T20:05:38;3.67;;;2.50;;
9819;SDS011;4949;48.482;9.206;2023-03-14T20:10:44;5.17;;;2.20;;
9819;SDS011;4949;48.482;9.206;2023-03-14T20:15:45;2.00;;;1.80;;
9819;SDS011;4949;48.482;9.206;2023-03-14T20:20:45;2.80;;;1.90;;
9819;SDS011;4949;48.482;9.206;2023-03-14T20:25:53;3.17;;;2.70;;
9819;SDS011;4949;48.482;9.206;2023-03-14T20:30:58;4.73;;;2.90;;
9819;SDS011;4949;48.482;9.206;2023-03-14T20:36:00;4.60;;;2.60;;
9819;SDS011;4949;48.482;9.206;2023-03-14T20:41:01;4.60;;;2.00;;
9819;SDS011;4949;48.482;9.206;2023-03-14T20:46:06;4.27;;;2.00;;
9819;SDS011;4949;48.482;9.206;2023-03-14T20:51:07;4.10;;;2.13;;
9819;SDS011;4949;48.482;9.206;2023-03-14T20:56:11;3.07;;;2.40;;
9819;SDS011;4949;48.482;9.206;2023-03-14T21:01:15;5.57;;;2.03;;
9819;SDS011;4949;48.482;9.206;2023-03-14T21:06:19;2.93;;;2.20;;
9819;SDS011;4949;48.482;9.206;2023-03-14T21:11:21;2.50;;;2.30;;
9819;SDS011;4949;48.482;9.206;2023-03-14T21:16:24;2.50;;;1.93;;
9819;SDS011;4949;48.482;9.206;2023-03-14T21:21:24;2.30;;;1.97;;
9819;SDS011;4949;48.482;9.206;2023-03-14T21:26:28;3.20;;;2.10;;
9819;SDS011;4949;48.482;9.206;2023-03-14T21:31:29;2.60;;;1.90;;
9819;SDS011;4949;48.482;9.206;2023-03-14T21:36:34;1.87;;;1.77;;
9819;SDS011;4949;48.482;9.206;2023-03-14T21:41:36;2.70;;;2.00;;
9819;SDS011;4949;48.482;9.206;2023-03-14T21:46:36;4.40;;;2.37;;
9819;SDS011;4949;48.482;9.206;2023-03-14T21:51:40;4.60;;;3.10;;
9819;SDS011;4949;48.482;9.206;2023-03-14T21:56:44;2.10;;;1.90;;
9819;SDS011;4949;48.482;9.206;2023-03-14T22:01:45;2.03;;;1.90;;
9819;SDS011;4949;48.482;9.206;2023-03-14T22:06:48;2.13;;;1.93;;
9819;SDS011;4949;48.482;9.206;2023-03-14T22:11:51;1.87;;;1.77;;
9819;SDS011;4949;48.482;9.206;2023-03-14T22:16:52;1.67;;;1.50;;
9819;SDS011;4949;48.482;9.206;2023-03-14T22:21:58;1.70;;;1.60;;
9819;SDS011;4949;48.482;9.206;2023-03-14T22:26:59;4.37;;;3.17;;
9819;SDS011;4949;48.482;9.206;2023-03-14T22:32:00;1.70;;;1.60;;
9819;SDS011;4949;48.482;9.206;2023-03-14T22:37:04;1.73;;;1.50;;
9819;SDS011;4949;48.482;9.206;2023-03-14T22:42:09;1.67;;;1.40;;
9819;SDS011;4949;48.482;9.206;2023-03-14T22:47:13;1.90;;;1.70;;
9819;SDS011;4949;48.482;9.206;2023-03-14T22:52:16;1.60;;;1.43;;
9819;SDS011;4949;48.482;9.206;2023-03-14T22:57:17;2.40;;;2.10;;
9819;SDS011;4949;48.482;9.206;2023-03-14T23:02:18;1.60;;;1.47;;
9819;SDS011;4949;48.482;9.206;2023-03-14T23:07:20;2.07;;;1.87;;
9819;SDS011;4949;48.482;9.206;2023-03-14T23:12:21;2.30;;;1.97;;
9819;SDS011;4949;48.482;9.206;2023-03-14T23:17:24;1.70;;;1.60;;
9819;SDS011;4949;48.482;9.206;2023-03-14T23:22:25;1.50;;;1.40;;
9819;SDS011;4949;48.482;9.206;2023-03-14T23:27:27;1.43;;;1.33;;
9819;SDS011;4949;48.482;9.206;2023-03-14T23:32:29;1.60;;;1.50;;
9819;SDS011;4949;48.482;9.206;2023-03-14T23:37:31;1.70;;;1.60;;
9819;SDS011;4949;48.482;9.206;2023-03-14T23:42:34;1.80;;;1.70;;
9819;SDS011;4949;48.482;9.206;2023-03-14T23:47:37;2.80;;;2.00;;
9819;SDS011;4949;48.482;9.206;2023-03-14T23:52:40;2.63;;;2.43;;
9819;SDS011;4949;48.482;9.206;2023-03-14T23:57:43;2.37;;;2.13;;
